createdAt,value
2018-08-03T00:02:02.942Z,54.20
2018-08-03T00:07:06.151Z,54.70
2018-08-03T00:12:09.306Z,54.80
2018-08-03T00:17:12.358Z,55.40
2018-08-03T00:22:15.398Z,55.50
2018-08-03T00:27:18.413Z,55.40
2018-08-03T00:32:21.454Z,55.40
2018-08-03T00:37:24.513Z,55.80
2018-08-03T00:42:27.506Z,55.70
2018-08-03T00:47:30.530Z,55.60
2018-08-03T00:52:33.634Z,56.10
2018-08-03T00:57:36.719Z,55.70
2018-08-03T01:02:39.732Z,55.50
2018-08-03T01:07:42.750Z,55.80
2018-08-03T01:12:47.167Z,55.50
2018-08-03T01:17:50.165Z,55.90
2018-08-03T01:22:53.181Z,55.70
2018-08-03T01:27:56.271Z,56.00
2018-08-03T01:32:59.283Z,56.30
2018-08-03T01:38:02.300Z,56.50
2018-08-03T01:43:05.520Z,56.40
2018-08-03T01:53:11.537Z,57.30
2018-08-03T01:58:14.606Z,57.10
2018-08-03T02:03:17.673Z,57.70
2018-08-03T02:08:20.650Z,57.50
2018-08-03T02:13:23.707Z,57.40
2018-08-03T02:18:26.722Z,57.60
2018-08-03T02:23:29.800Z,57.50
2018-08-03T02:28:32.861Z,57.70
2018-08-03T02:33:35.897Z,57.60
2018-08-03T02:38:39.003Z,57.10
2018-08-03T02:43:42.071Z,56.80
2018-08-03T02:48:45.159Z,56.60
2018-08-03T02:53:48.243Z,56.80
2018-08-03T02:58:51.287Z,56.30
2018-08-03T03:03:54.555Z,56.10
2018-08-03T03:08:57.623Z,56.40
2018-08-03T03:14:00.682Z,56.30
2018-08-03T03:19:03.967Z,56.40
2018-08-03T03:24:07.002Z,56.80
2018-08-03T03:29:10.044Z,55.90
2018-08-03T03:34:13.114Z,56.30
2018-08-03T03:39:16.166Z,56.20
2018-08-03T03:44:19.179Z,56.60
2018-08-03T03:49:22.243Z,56.70
2018-08-03T03:54:25.370Z,57.00
2018-08-03T03:59:28.401Z,57.50
2018-08-03T04:04:31.500Z,57.90
2018-08-03T04:09:34.586Z,57.90
2018-08-03T04:14:37.616Z,58.10
2018-08-03T04:19:40.675Z,58.60
2018-08-03T04:24:43.807Z,58.80
2018-08-03T04:29:46.838Z,59.10
2018-08-03T04:39:53.619Z,60.20
2018-08-03T04:44:56.654Z,60.00
2018-08-03T04:49:59.678Z,61.00
2018-08-03T04:55:02.757Z,61.50
2018-08-03T05:00:06.052Z,61.90
2018-08-03T05:05:09.807Z,62.30
2018-08-03T05:10:12.853Z,62.30
2018-08-03T05:15:15.875Z,62.10
2018-08-03T05:20:18.910Z,62.50
2018-08-03T05:25:21.940Z,61.10
2018-08-03T05:30:25.090Z,60.00
2018-08-03T05:35:28.107Z,60.20
2018-08-03T05:40:31.155Z,60.00
2018-08-03T05:45:34.217Z,59.00
2018-08-03T05:50:37.273Z,58.70
2018-08-03T05:55:40.314Z,58.50
2018-08-03T06:00:43.444Z,59.10
2018-08-03T06:05:46.462Z,58.30
2018-08-03T06:10:49.559Z,58.00
2018-08-03T06:20:55.817Z,57.80
2018-08-03T06:25:59.240Z,58.30
2018-08-03T06:31:02.695Z,57.20
2018-08-03T06:36:06.203Z,57.00
2018-08-03T06:41:09.657Z,56.20
2018-08-03T06:46:13.028Z,57.00
2018-08-03T06:51:16.405Z,56.30
2018-08-03T06:56:19.944Z,57.00
2018-08-03T07:01:23.364Z,56.20
2018-08-03T07:06:26.777Z,56.80
2018-08-03T07:11:30.223Z,55.70
2018-08-03T07:16:33.269Z,56.00
2018-08-03T07:21:36.294Z,55.90
2018-08-03T07:26:39.564Z,55.50
2018-08-03T07:31:42.638Z,54.40
2018-08-03T07:36:45.668Z,53.60
2018-08-03T07:41:48.703Z,53.60
2018-08-03T07:46:51.802Z,53.20
2018-08-03T07:51:54.854Z,52.40
2018-08-03T07:56:57.886Z,52.60
2018-08-03T08:02:00.919Z,52.00
2018-08-03T08:07:03.989Z,52.20
2018-08-03T08:12:07.127Z,51.30
2018-08-03T08:17:10.133Z,51.50
2018-08-03T08:22:13.688Z,51.20
2018-08-03T08:27:17.016Z,50.70
2018-08-03T08:32:20.139Z,50.50
2018-08-03T08:37:23.533Z,50.80
2018-08-03T08:42:26.579Z,50.50
2018-08-03T08:47:29.608Z,50.10
2018-08-03T08:52:32.619Z,50.00
2018-08-03T08:57:35.656Z,49.50
2018-08-03T09:02:38.731Z,49.10
2018-08-03T09:07:41.887Z,48.00
2018-08-03T09:12:44.846Z,48.10
2018-08-03T09:17:47.910Z,47.10
2018-08-03T09:22:50.930Z,47.40
2018-08-03T09:27:53.928Z,46.70
2018-08-03T09:38:00.010Z,44.40
2018-08-03T09:43:03.264Z,43.70
2018-08-03T09:48:06.256Z,43.40
2018-08-03T09:58:12.259Z,43.10
2018-08-03T10:03:15.237Z,43.40
2018-08-03T10:08:18.298Z,42.30
2018-08-03T10:13:21.370Z,40.60
2018-08-03T10:18:24.571Z,40.90
2018-08-03T10:23:27.727Z,40.10
2018-08-03T10:28:30.795Z,39.40
2018-08-03T10:33:33.819Z,39.70
2018-08-03T10:38:36.816Z,39.10
2018-08-03T10:43:39.922Z,38.00
2018-08-03T10:48:43.113Z,38.80
2018-08-03T10:53:47.657Z,38.80
2018-08-03T10:58:51.147Z,38.20
2018-08-03T11:03:54.185Z,37.90
2018-08-03T11:08:57.250Z,39.40
2018-08-03T11:14:00.457Z,38.70
2018-08-03T11:19:03.873Z,37.70
2018-08-03T11:29:09.796Z,39.50
2018-08-03T11:34:12.892Z,37.60
2018-08-03T11:39:15.978Z,37.10
2018-08-03T11:44:19.010Z,37.00
2018-08-03T11:49:22.063Z,35.60
2018-08-03T11:54:25.192Z,37.10
2018-08-03T11:59:28.243Z,37.00
2018-08-03T12:04:31.345Z,35.70
2018-08-03T12:09:34.411Z,36.60
2018-08-03T12:14:37.453Z,36.60
2018-08-03T12:19:40.499Z,36.00
2018-08-03T12:24:43.555Z,35.10
2018-08-03T12:29:46.617Z,34.80
2018-08-03T12:34:49.769Z,35.10
2018-08-03T12:39:52.843Z,34.10
2018-08-03T12:44:55.861Z,34.70
2018-08-03T12:49:58.883Z,35.40
2018-08-03T12:55:01.970Z,35.50
2018-08-03T13:00:06.032Z,34.60
2018-08-03T13:05:09.121Z,34.50
2018-08-03T13:10:12.157Z,35.30
2018-08-03T13:15:15.211Z,34.80
2018-08-03T13:20:18.328Z,33.20
2018-08-03T13:25:22.367Z,34.60
2018-08-03T13:30:25.475Z,34.20
2018-08-03T13:35:28.538Z,34.20
2018-08-03T13:40:31.907Z,33.50
2018-08-03T13:45:35.389Z,34.60
2018-08-03T13:50:38.730Z,33.70
2018-08-03T13:55:42.186Z,33.60
2018-08-03T14:00:45.524Z,32.20
2018-08-03T14:05:48.866Z,33.40
2018-08-03T14:10:52.282Z,33.40
2018-08-03T14:15:55.850Z,32.40
2018-08-03T14:20:59.185Z,33.90
2018-08-03T14:26:02.434Z,33.70
2018-08-03T14:31:05.801Z,33.30
2018-08-03T14:36:09.237Z,32.90
2018-08-03T14:41:12.776Z,33.00
2018-08-03T14:46:16.132Z,33.30
2018-08-03T14:51:19.516Z,33.70
2018-08-03T14:56:22.819Z,32.80
2018-08-03T15:01:25.849Z,32.70
2018-08-03T15:06:28.854Z,33.10
2018-08-03T15:11:32.205Z,32.10
2018-08-03T15:16:35.893Z,33.00
2018-08-03T15:21:40.192Z,33.60
2018-08-03T15:26:44.684Z,32.90
2018-08-03T15:31:47.763Z,33.70
2018-08-03T15:36:50.910Z,33.20
2018-08-03T15:41:53.898Z,33.40
2018-08-03T15:46:56.946Z,34.10
2018-08-03T15:51:59.988Z,33.10
2018-08-03T15:57:03.036Z,33.50
2018-08-03T16:02:06.307Z,34.20
2018-08-03T16:07:09.377Z,33.70
2018-08-03T16:12:12.403Z,33.50
2018-08-03T16:17:15.432Z,33.50
2018-08-03T16:22:18.656Z,33.70
2018-08-03T16:27:21.705Z,33.90
2018-08-03T16:32:24.721Z,33.80
2018-08-03T16:37:27.769Z,33.80
2018-08-03T16:42:30.843Z,34.60
2018-08-03T16:47:33.947Z,35.30
2018-08-03T16:52:37.011Z,33.50
2018-08-03T16:57:40.094Z,35.70
2018-08-03T17:02:43.139Z,35.20
2018-08-03T17:07:46.165Z,34.70
2018-08-03T17:12:49.262Z,34.70
2018-08-03T17:17:52.350Z,35.70
2018-08-03T17:22:55.435Z,36.30
2018-08-03T17:27:58.530Z,34.90
2018-08-03T17:33:01.547Z,34.40
2018-08-03T17:38:04.608Z,34.80
2018-08-03T17:43:07.758Z,35.50
2018-08-03T17:48:10.774Z,37.30
2018-08-03T17:53:14.263Z,37.90
2018-08-03T17:58:17.595Z,37.20
2018-08-03T18:03:21.060Z,39.10
2018-08-03T18:08:24.183Z,39.30
2018-08-03T18:13:27.714Z,39.50
2018-08-03T18:18:30.775Z,40.00
2018-08-03T18:23:33.924Z,40.10
2018-08-03T18:28:36.982Z,40.80
2018-08-03T18:33:40.086Z,41.30
2018-08-03T18:38:43.086Z,42.10
2018-08-03T18:43:46.185Z,42.10
2018-08-03T18:48:49.486Z,42.60
2018-08-03T18:53:52.503Z,42.90
2018-08-03T18:58:55.513Z,43.10
2018-08-03T19:03:58.539Z,43.50
2018-08-03T19:09:01.599Z,43.20
2018-08-03T19:14:04.770Z,43.50
2018-08-03T19:19:08.039Z,43.80
2018-08-03T19:24:11.128Z,43.20
2018-08-03T19:29:14.153Z,43.30
2018-08-03T19:34:17.384Z,43.10
2018-08-03T19:39:20.871Z,43.80
2018-08-03T19:44:24.097Z,42.50
2018-08-03T19:49:27.159Z,43.20
2018-08-03T19:54:30.279Z,43.60
2018-08-03T19:59:33.311Z,43.30
2018-08-03T20:04:36.474Z,43.40
2018-08-03T20:09:39.507Z,43.20
2018-08-03T20:14:42.702Z,43.80
2018-08-03T20:19:46.416Z,44.30
2018-08-03T20:24:49.690Z,44.00
2018-08-03T20:29:52.723Z,44.70
2018-08-03T20:34:57.162Z,45.30
2018-08-03T20:40:00.392Z,45.90
2018-08-03T20:45:03.987Z,46.20
2018-08-03T20:50:07.002Z,46.20
2018-08-03T20:55:10.029Z,46.50
2018-08-03T21:00:13.091Z,46.50
2018-08-03T21:05:16.508Z,46.70
2018-08-03T21:10:19.530Z,47.10
2018-08-03T21:15:23.809Z,46.90
2018-08-03T21:20:27.455Z,47.20
2018-08-03T21:25:31.268Z,47.80
2018-08-03T21:30:34.903Z,47.90
2018-08-03T21:35:37.927Z,48.60
2018-08-03T21:40:40.977Z,48.80
2018-08-03T21:45:44.025Z,48.60
2018-08-03T21:50:47.208Z,48.90
2018-08-03T21:55:50.240Z,49.00
2018-08-03T22:00:53.326Z,49.20
2018-08-03T22:05:56.381Z,49.20
2018-08-03T22:10:59.426Z,49.70
2018-08-03T22:21:05.435Z,49.80
2018-08-03T22:26:08.494Z,50.00
2018-08-03T22:31:11.542Z,50.10
2018-08-03T22:36:14.569Z,50.50
2018-08-03T22:41:18.442Z,50.60
2018-08-03T22:46:21.563Z,50.40
2018-08-03T22:51:24.737Z,50.70
2018-08-03T22:56:27.781Z,50.70
2018-08-03T23:01:30.791Z,50.30
2018-08-03T23:06:33.801Z,50.10
2018-08-03T23:11:36.978Z,50.00
2018-08-03T23:16:40.010Z,50.00
2018-08-03T23:21:43.024Z,50.30
2018-08-03T23:26:46.056Z,50.50
2018-08-03T23:31:49.103Z,50.40
2018-08-03T23:36:52.177Z,50.50
2018-08-03T23:41:55.246Z,51.20
2018-08-03T23:46:58.338Z,51.40
2018-08-03T23:52:01.358Z,51.70
2018-08-03T23:57:04.459Z,51.90
